Latest Weather Observations for Kuitpo

IDS60901

Issued at 11:41 pm CST Friday 14 August 2020 (issued every 10 minutes, with the page automatically refreshed every 10 minutes)

About weather observations | Map of Adelaide area stations | Latest observations for Adelaide area | Other Formats
Station Details ID: 023887 Name: KUITPO FOREST RESERVE Lat: -35.17 Lon: 138.68 Height: 365.0 m
Data from the previous 72 hours. | See also: Recent months at Kuitpo
Date/Time
CST
Temp
°C
App
Temp
°C
Dew
Point
°C
Rel
Hum
%
Delta-T
°C
Wind Press
QNH
hPa
Press
MSL
hPa
Rain since
9am
mm
Dir  Spd
km/h
Gust
km/h
Spd
kts
Gust
kts
14/11:30pm 9.8 7.3 9.8 100 0.0 WNW 13 19 7 10 1011.7 1011.9 3.0
14/11:00pm 9.9 7.1 9.9 100 0.0 WNW 15 20 8 11 1011.7 1011.9 3.0
14/10:30pm 10.0 7.6 10.0 100 0.0 W 13 17 7 9 1011.7 1011.9 3.0
14/10:00pm 10.1 7.7 10.1 100 0.0 W 13 19 7 10 1011.8 1012.0 2.8
14/09:30pm 10.2 8.2 10.2 100 0.0 WNW 11 15 6 8 1011.8 1012.0 0.6
14/09:00pm 10.2 8.2 10.2 100 0.0 WNW 11 15 6 8 1011.6 1011.8 0.6
14/08:30pm 10.2 7.5 10.2 100 0.0 WNW 15 20 8 11 1011.3 1011.4 0.6
14/08:00pm 10.4 8.9 10.4 100 0.0 NW 9 13 5 7 1011.1 1011.2 0.0
14/07:30pm 10.4 8.8 10.2 99 0.1 WNW 9 13 5 7 1011.0 1011.1 0.0
14/07:00pm 10.5 8.1 10.2 98 0.2 WNW 13 19 7 10 1010.8 1010.9 0.0
14/06:30pm 10.6 8.6 10.0 96 0.3 WNW 11 17 6 9 1010.3 1010.5 0.0
14/06:00pm 10.7 8.2 9.8 94 0.5 WNW 13 20 7 11 1010.0 1010.2 0.0
14/05:30pm 10.9 8.3 9.5 91 0.7 WNW 13 20 7 11 1009.8 1010.0 0.0
14/05:00pm 11.4 8.5 9.7 89 0.9 WNW 15 24 8 13 1009.6 1009.8 0.0
14/04:30pm 11.4 8.2 9.8 90 0.8 WNW 17 24 9 13 1009.2 1009.3 0.0
14/04:00pm 11.5 7.9 9.8 89 0.9 WNW 19 28 10 15 1009.0 1009.1 0.0
14/03:30pm 11.7 8.4 9.6 87 1.1 WNW 17 24 9 13 1008.8 1008.9 0.0
14/03:00pm 11.8 7.8 9.2 84 1.3 NW 20 33 11 18 1008.7 1008.8 0.0
14/02:30pm 11.7 8.0 9.3 85 1.2 WNW 19 28 10 15 1008.7 1008.8 0.0
14/02:00pm 12.0 8.2 9.7 86 1.2 WNW 20 35 11 19 1008.5 1008.6 0.0
14/01:30pm 11.7 7.8 9.6 87 1.1 NW 20 33 11 18 1008.5 1008.6 0.0
14/01:00pm 11.4 8.1 10.9 97 0.3 NW 19 28 10 15 1008.6 1008.7 0.0
14/12:30pm 10.6 7.6 10.6 100 0.0 NW 17 30 9 16 1008.9 1009.0 0.0
14/12:00pm 9.8 6.2 9.8 100 0.0 NW 19 28 10 15 1009.3 1009.5 0.0
14/11:30am 9.7 6.1 9.7 100 0.0 NW 19 30 10 16 1009.5 1009.7 0.0
14/11:00am 9.4 6.4 9.4 100 0.0 NW 15 24 8 13 1009.6 1009.8 0.0
14/10:30am 9.6 7.1 9.6 100 0.0 NW 13 20 7 11 1009.8 1010.0 0.0
14/10:00am 9.3 5.9 9.3 100 0.0 NW 17 28 9 15 1009.5 1009.7 0.0
14/09:30am 9.3 6.7 9.3 100 0.0 NW 13 20 7 11 1009.6 1009.8 0.0
14/09:00am 9.4 5.5 9.4 100 0.0 NW 20 32 11 17 1009.3 1009.5 1.4
14/08:30am 9.2 5.4 9.2 100 0.0 NW 19 26 10 14 1009.3 1009.5 1.4
14/08:00am 9.1 6.4 9.1 100 0.0 NW 13 19 7 10 1009.2 1009.3 1.4
14/07:30am 9.2 6.6 9.2 100 0.0 NW 13 20 7 11 1009.0 1009.1 1.4
14/07:00am 9.4 6.8 9.4 100 0.0 NW 13 19 7 10 1008.7 1008.8 1.4
14/06:30am 9.4 7.2 9.4 100 0.0 NW 11 19 6 10 1008.4 1008.5 1.4
14/06:00am 9.4 6.8 9.4 100 0.0 NW 13 20 7 11 1008.2 1008.3 1.4
14/05:30am 9.4 6.4 9.4 100 0.0 NW 15 20 8 11 1008.1 1008.2 1.4
14/05:00am 9.4 6.4 9.4 100 0.0 NW 15 20 8 11 1008.0 1008.1 1.2
14/04:30am 9.5 6.2 9.5 100 0.0 NW 17 24 9 13 1007.9 1008.0 1.2
14/04:00am 9.5 6.6 9.5 100 0.0 NW 15 22 8 12 1007.9 1008.0 1.2
14/03:30am 9.5 6.6 9.5 100 0.0 NW 15 22 8 12 1008.1 1008.2 1.2
14/03:00am 9.5 6.9 9.5 100 0.0 NW 13 20 7 11 1008.1 1008.2 1.2
14/02:30am 9.7 7.2 9.7 100 0.0 NNW 13 20 7 11 1008.3 1008.4 1.2
14/02:00am 9.8 7.3 9.8 100 0.0 NNW 13 20 7 11 1008.4 1008.5 1.2
14/01:30am 10.0 7.2 10.0 100 0.0 NNW 15 22 8 12 1008.6 1008.7 1.2
14/01:00am 10.2 7.8 10.2 100 0.0 NW 13 22 7 12 1008.7 1008.8 1.2
14/12:30am 10.2 7.8 10.2 100 0.0 NNW 13 22 7 12 1008.8 1008.9 1.0
14/12:00am 10.1 6.9 10.1 100 0.0 NNW 17 26 9 14 1009.1 1009.2 1.0
 
Date/Time
CST
Temp
°C
App
Temp
°C
Dew
Point
°C
Rel
Hum
%
Delta-T
°C
Wind Press
QNH
hPa
Press
MSL
hPa
Rain since
9am
mm
Dir  Spd
km/h
Gust
km/h
Spd
kts
Gust
kts
13/11:30pm 10.0 7.6 10.0 100 0.0 NNW 13 24 7 13 1009.2 1009.3 1.0
13/11:00pm 10.2 7.5 10.2 100 0.0 NNW 15 24 8 13 1009.4 1009.6 1.0
13/10:30pm 10.3 8.0 10.3 100 0.0 NW 13 24 7 13 1009.5 1009.7 1.0
13/10:00pm 10.4 7.6 9.9 97 0.3 NW 15 24 8 13 1009.5 1009.7 1.0
13/09:30pm 10.4 7.5 9.5 94 0.5 NW 15 24 8 13 1009.5 1009.7 0.8
13/09:00pm 10.7 8.3 9.9 95 0.4 NNW 13 20 7 11 1009.4 1009.6 0.8
13/08:30pm 10.8 8.5 10.3 97 0.3 NNW 13 20 7 11 1009.3 1009.5 0.8
13/08:00pm 10.8 8.8 10.2 96 0.3 NW 11 19 6 10 1009.1 1009.2 0.8
13/07:30pm 10.8 8.0 10.0 95 0.4 NW 15 22 8 12 1008.9 1009.0 0.8
13/07:00pm 11.0 8.6 9.9 93 0.6 NW 13 20 7 11 1008.6 1008.7 0.8
13/06:30pm 11.1 8.7 9.9 92 0.6 NW 13 20 7 11 1008.1 1008.2 0.8
13/06:00pm 11.4 9.1 10.3 93 0.6 NW 13 22 7 12 1007.7 1007.8 0.8
13/05:30pm 11.6 8.9 10.3 92 0.7 NW 15 22 8 12 1007.3 1007.5 0.8
13/05:00pm 11.6 9.0 10.7 94 0.5 NW 15 22 8 12 1007.1 1007.3 0.8
13/04:30pm 11.8 9.3 10.9 94 0.5 NW 15 22 8 12 1007.0 1007.2 0.8
13/04:00pm 11.6 8.6 10.8 95 0.4 WNW 17 26 9 14 1007.0 1007.2 0.8
13/03:30pm 11.8 8.7 11.5 98 0.2 NW 19 32 10 17 1007.0 1007.2 0.8
13/03:00pm 11.3 6.7 11.1 99 0.1 NW 26 37 14 20 1006.9 1007.0 0.8
13/02:30pm 11.6 8.9 11.6 100 0.0 NW 17 26 9 14 1006.8 1006.9 0.8
13/02:00pm 12.1 8.5 10.5 90 0.8 NW 20 33 11 18 1007.0 1007.2 0.0
13/01:30pm 11.8 8.2 10.5 92 0.7 NW 20 37 11 20 1007.0 1007.2 0.0
13/01:00pm 11.7 7.4 10.8 94 0.5 NW 24 37 13 20 1007.4 1007.6 0.0
13/12:30pm 11.1 7.9 11.1 100 0.0 NW 19 33 10 18 1007.7 1007.8 0.0
13/12:00pm 10.7 6.8 10.7 100 0.0 NW 22 33 12 18 1008.1 1008.2 0.0
13/11:30am 10.4 6.8 10.4 100 0.0 NW 20 35 11 19 1008.4 1008.5 0.0
13/11:00am 10.5 6.9 10.5 100 0.0 NW 20 33 11 18 1008.5 1008.6 0.0
13/10:30am 10.3 6.3 10.3 100 0.0 NW 22 37 12 20 1008.5 1008.6 0.0
13/10:00am 10.4 7.0 10.4 100 0.0 NW 19 30 10 16 1008.5 1008.6 0.0
13/09:30am 10.0 5.9 10.0 100 0.0 NW 22 46 12 25 1008.4 1008.5 0.0
13/09:00am 9.9 6.1 9.9 100 0.0 NW 20 39 11 21 1008.2 1008.3 3.4
13/08:30am 9.7 6.1 9.7 100 0.0 NW 19 37 10 20 1008.1 1008.2 3.4
13/08:00am 9.7 6.1 9.7 100 0.0 NW 19 28 10 15 1007.9 1008.0 3.4
13/07:30am 9.7 5.5 9.7 100 0.0 NW 22 39 12 21 1007.7 1007.8 3.2
13/07:00am 9.8 5.6 9.8 100 0.0 NW 22 37 12 20 1007.1 1007.3 3.2
13/06:30am 9.8 5.2 9.8 100 0.0 NW 24 39 13 21 1006.8 1006.9 3.2
13/06:00am 9.9 5.4 9.9 100 0.0 NW 24 44 13 24 1006.5 1006.6 3.2
13/05:30am 9.9 5.4 9.9 100 0.0 NW 24 41 13 22 1006.3 1006.4 3.2
13/05:00am 10.0 5.5 10.0 100 0.0 NW 24 43 13 23 1006.3 1006.4 3.2
13/04:30am 10.1 5.2 10.1 100 0.0 WNW 26 41 14 22 1006.1 1006.2 3.2
13/04:00am 10.1 4.5 10.1 100 0.0 WNW 30 50 16 27 1006.0 1006.1 3.2
13/03:30am 10.1 4.9 10.1 100 0.0 NW 28 46 15 25 1005.9 1006.0 3.2
13/03:02am 10.1 4.9 10.1 100 0.0 NW 28 50 15 27 1005.9 1006.0 3.2
13/03:00am 10.1 5.2 10.1 100 0.0 NW 26 46 14 25 1006.0 1006.1 3.2
13/02:56am 10.1 4.9 10.1 100 0.0 NW 28 46 15 25 1006.0 1006.1 3.2
13/02:30am 10.1 5.6 10.1 100 0.0 NW 24 37 13 20 1006.2 1006.3 3.2
13/02:00am 10.4 6.0 10.4 100 0.0 NW 24 46 13 25 1006.4 1006.5 3.2
13/01:30am 10.5 5.8 10.5 100 0.0 NW 26 37 14 20 1006.4 1006.5 3.2
13/01:00am 10.5 6.1 10.5 100 0.0 NW 24 35 13 19 1006.4 1006.5 3.2
13/12:30am 10.6 5.9 10.6 100 0.0 NW 26 44 14 24 1006.5 1006.6 3.2
13/12:00am 10.6 5.9 10.6 100 0.0 NW 26 41 14 22 1006.5 1006.6 3.2
 
Date/Time
CST
Temp
°C
App
Temp
°C
Dew
Point
°C
Rel
Hum
%
Delta-T
°C
Wind Press
QNH
hPa
Press
MSL
hPa
Rain since
9am
mm
Dir  Spd
km/h
Gust
km/h
Spd
kts
Gust
kts
12/11:30pm 10.7 6.4 10.7 100 0.0 NW 24 41 13 22 1006.5 1006.6 3.2
12/11:00pm 10.9 6.6 10.9 100 0.0 NW 24 37 13 20 1006.5 1006.6 3.2
12/10:30pm 11.0 6.7 10.7 98 0.2 NW 24 39 13 21 1006.6 1006.7 3.2
12/10:00pm 11.2 6.8 10.4 95 0.4 NW 24 35 13 19 1006.7 1006.8 3.2
12/09:30pm 11.3 7.3 10.4 94 0.5 NW 22 35 12 19 1006.6 1006.7 3.2
12/09:00pm 11.1 7.6 10.3 95 0.4 NW 19 32 10 17 1006.6 1006.7 3.2
12/08:30pm 11.1 7.4 10.0 93 0.6 NW 20 30 11 16 1006.3 1006.4 3.2
12/08:00pm 11.1 7.5 10.0 93 0.6 WNW 19 32 10 17 1006.0 1006.1 3.2
12/07:30pm 11.1 7.6 10.2 94 0.5 NW 19 32 10 17 1005.7 1005.8 3.2
12/07:00pm 11.3 7.6 10.2 93 0.6 NW 20 33 11 18 1005.4 1005.5 3.2
12/06:30pm 11.4 7.7 10.3 93 0.6 NW 20 32 11 17 1005.2 1005.3 3.2
12/06:00pm 11.4 7.7 10.1 92 0.7 NW 20 35 11 19 1004.8 1004.9 3.2
12/05:30pm 11.8 8.4 10.4 91 0.7 NW 19 35 10 19 1004.3 1004.4 3.2
12/05:00pm 12.4 8.4 10.6 89 1.0 NW 22 41 12 22 1004.0 1004.1 3.2
12/04:30pm 12.6 9.1 11.0 90 0.9 NW 20 35 11 19 1003.7 1003.8 3.2
12/04:00pm 12.7 8.9 11.3 91 0.8 NW 22 43 12 23 1003.7 1003.8 3.2
12/03:30pm 12.5 8.2 10.9 90 0.9 WNW 24 44 13 24 1003.6 1003.7 3.2
12/03:00pm 12.6 8.8 11.2 91 0.8 NW 22 37 12 20 1003.5 1003.6 3.2
12/02:30pm 12.2 8.9 11.6 96 0.3 NW 20 32 11 17 1003.5 1003.6 3.2
12/02:00pm 12.0 8.4 12.0 100 0.0 NW 22 43 12 23 1003.4 1003.5 3.2
12/01:30pm 11.2 7.0 11.2 100 0.0 NW 24 44 13 24 1003.3 1003.4 3.2
12/01:00pm 11.1 7.3 11.1 100 0.0 NW 22 35 12 19 1003.4 1003.5 3.2
12/12:30pm 10.7 6.8 10.7 100 0.0 NW 22 39 12 21 1003.8 1003.9 3.2
12/12:00pm 10.6 7.0 10.6 100 0.0 NW 20 35 11 19 1004.1 1004.2 2.8
12/11:30am 10.7 7.1 10.7 100 0.0 NW 20 33 11 18 1004.2 1004.3 1.6
12/11:00am 10.6 7.0 10.6 100 0.0 NW 20 33 11 18 1004.3 1004.4 1.4
12/10:30am 10.2 7.1 10.2 100 0.0 NNW 17 28 9 15 1004.5 1004.6 1.2
12/10:00am 9.9 7.1 9.9 100 0.0 NNW 15 26 8 14 1004.5 1004.6 0.4
12/09:30am 9.9 6.7 9.9 100 0.0 NNW 17 30 9 16 1004.4 1004.5 0.2
12/09:00am 9.8 6.9 9.7 99 0.1 NNW 15 28 8 15 1004.5 1004.6 6.2
12/08:30am 9.9 6.6 9.4 97 0.3 NNW 17 28 9 15 1004.4 1004.5 6.2
12/08:00am 9.8 6.4 9.2 96 0.3 NNW 17 30 9 16 1004.3 1004.4 6.2
12/07:30am 9.8 6.0 9.2 96 0.3 NNW 19 32 10 17 1004.2 1004.3 6.2
12/07:00am 9.9 6.5 9.3 96 0.3 NNW 17 24 9 13 1004.0 1004.1 6.2
12/06:30am 10.0 6.1 9.4 96 0.3 NNW 20 39 11 21 1003.8 1003.9 6.2
12/06:00am 9.8 5.9 9.5 98 0.2 NNW 20 35 11 19 1003.8 1003.9 6.2
12/05:30am 9.8 6.6 9.8 100 0.0 NNW 17 28 9 15 1003.9 1004.0 6.2
12/05:00am 9.6 6.3 9.6 100 0.0 NNW 17 30 9 16 1003.9 1004.0 6.2
12/04:30am 9.5 6.2 9.5 100 0.0 NNW 17 32 9 17 1003.7 1003.8 6.2
12/04:00am 9.6 5.9 9.6 100 0.0 NNW 19 32 10 17 1003.8 1003.9 6.0
12/03:30am 9.5 5.7 9.2 98 0.2 NNW 19 39 10 21 1004.1 1004.2 5.8
12/03:00am 9.5 5.7 8.9 96 0.3 NNW 19 33 10 18 1004.3 1004.4 5.8
12/02:30am 9.1 5.5 8.5 96 0.3 N 17 32 9 17 1004.5 1004.6 5.8
12/02:00am 9.4 5.3 8.0 91 0.7 N 19 32 10 17 1005.1 1005.2 5.6
12/01:30am 10.3 5.5 7.4 82 1.4 NNW 22 44 12 24 1005.4 1005.5 5.6
12/01:00am 10.4 6.1 7.1 80 1.6 NNW 19 37 10 20 1005.3 1005.4 5.6
12/12:30am 9.6 6.1 7.4 86 1.1 N 15 30 8 16 1005.1 1005.2 5.6
12/12:00am 10.4 7.4 7.5 82 1.4 NNW 13 24 7 13 1005.5 1005.6 5.2

Latest Capital City Observations: Canberra | Sydney | Melbourne | Brisbane | Adelaide | Perth | Hobart | Darwin

Other formats

Comma delimited format used in spreadsheet applications
http://www.bom.gov.au/fwo/IDS60901/IDS60901.94683.axf

JavaScript Object Notation format (JSON) in row-major order
http://www.bom.gov.au/fwo/IDS60901/IDS60901.94683.json

Data quality

Most of these data are generated automatically and are frequently updated. Quality checks on data are not normally performed. It is possible for incorrect values to appear. Refer to information at About Latest Weather Observations and please check the disclaimer before using these data.